sensor_id;sensor_type;location;lat;lon;timestamp;pressure;altitude;pressure_sealevel;temperature;humidity
73024;BME280;72676;47.526;8.538;2023-10-08T00:01:20;97460.94;;;17.24;65.02
73024;BME280;72676;47.526;8.538;2023-10-08T00:03:48;97465.25;;;17.25;64.51
73024;BME280;72676;47.526;8.538;2023-10-08T00:06:17;97466.81;;;17.18;64.57
73024;BME280;72676;47.526;8.538;2023-10-08T00:08:46;97469.72;;;16.97;65.04
73024;BME280;72676;47.526;8.538;2023-10-08T00:11:14;97471.31;;;16.90;66.00
73024;BME280;72676;47.526;8.538;2023-10-08T00:13:42;97461.22;;;17.03;65.13
73024;BME280;72676;47.526;8.538;2023-10-08T00:16:12;97474.09;;;16.89;65.81
73024;BME280;72676;47.526;8.538;2023-10-08T00:18:48;97477.63;;;16.80;65.56
73024;BME280;72676;47.526;8.538;2023-10-08T00:21:15;97472.34;;;16.80;65.75
73024;BME280;72676;47.526;8.538;2023-10-08T00:23:43;97472.53;;;16.69;66.09
73024;BME280;72676;47.526;8.538;2023-10-08T00:26:16;97479.94;;;16.65;65.92
73024;BME280;72676;47.526;8.538;2023-10-08T00:28:46;97479.38;;;16.71;65.58
73024;BME280;72676;47.526;8.538;2023-10-08T00:31:17;97473.91;;;16.73;65.35
73024;BME280;72676;47.526;8.538;2023-10-08T00:33:44;97476.72;;;16.71;65.71
73024;BME280;72676;47.526;8.538;2023-10-08T00:36:11;97466.41;;;16.68;65.08
73024;BME280;72676;47.526;8.538;2023-10-08T00:38:48;97473.34;;;16.69;64.78
73024;BME280;72676;47.526;8.538;2023-10-08T00:41:21;97482.88;;;16.62;65.00
73024;BME280;72676;47.526;8.538;2023-10-08T00:43:54;97477.28;;;16.65;64.57
73024;BME280;72676;47.526;8.538;2023-10-08T00:46:26;97472.53;;;16.69;64.42
73024;BME280;72676;47.526;8.538;2023-10-08T00:49:02;97482.16;;;16.60;64.78
73024;BME280;72676;47.526;8.538;2023-10-08T00:51:47;97464.81;;;16.58;64.78
73024;BME280;72676;47.526;8.538;2023-10-08T00:54:19;97463.53;;;16.62;64.48
73024;BME280;72676;47.526;8.538;2023-10-08T00:56:46;97470.47;;;16.63;64.82
73024;BME280;72676;47.526;8.538;2023-10-08T00:59:16;97467.16;;;16.61;65.28
73024;BME280;72676;47.526;8.538;2023-10-08T01:01:44;97459.66;;;16.56;65.08
73024;BME280;72676;47.526;8.538;2023-10-08T01:04:25;97463.84;;;16.49;65.16
73024;BME280;72676;47.526;8.538;2023-10-08T01:06:57;97461.09;;;16.41;65.66
73024;BME280;72676;47.526;8.538;2023-10-08T01:09:28;97457.63;;;16.31;66.07
73024;BME280;72676;47.526;8.538;2023-10-08T01:14:35;97455.97;;;16.40;65.76
73024;BME280;72676;47.526;8.538;2023-10-08T01:17:02;97445.63;;;16.46;65.82
73024;BME280;72676;47.526;8.538;2023-10-08T01:19:31;97448.97;;;16.48;65.15
73024;BME280;72676;47.526;8.538;2023-10-08T01:22:03;97449.69;;;16.41;65.55
73024;BME280;72676;47.526;8.538;2023-10-08T01:24:32;97443.84;;;16.37;65.81
73024;BME280;72676;47.526;8.538;2023-10-08T01:27:00;97446.78;;;16.34;65.91
73024;BME280;72676;47.526;8.538;2023-10-08T01:29:31;97441.59;;;16.42;65.61
73024;BME280;72676;47.526;8.538;2023-10-08T01:31:58;97448.69;;;16.32;65.80
73024;BME280;72676;47.526;8.538;2023-10-08T01:34:24;97449.41;;;16.34;65.90
73024;BME280;72676;47.526;8.538;2023-10-08T01:36:57;97447.63;;;16.25;65.99
73024;BME280;72676;47.526;8.538;2023-10-08T01:39:28;97444.88;;;16.17;65.84
73024;BME280;72676;47.526;8.538;2023-10-08T01:41:55;97439.84;;;16.14;66.10
73024;BME280;72676;47.526;8.538;2023-10-08T01:44:22;97435.38;;;16.24;65.71
73024;BME280;72676;47.526;8.538;2023-10-08T01:46:48;97439.28;;;16.20;65.74
73024;BME280;72676;47.526;8.538;2023-10-08T01:49:15;97438.19;;;16.13;66.04
73024;BME280;72676;47.526;8.538;2023-10-08T01:51:43;97433.75;;;16.04;66.48
73024;BME280;72676;47.526;8.538;2023-10-08T01:54:20;97439.59;;;16.08;66.05
73024;BME280;72676;47.526;8.538;2023-10-08T01:56:47;97433.34;;;16.09;66.30
73024;BME280;72676;47.526;8.538;2023-10-08T01:59:14;97422.63;;;16.10;65.79
73024;BME280;72676;47.526;8.538;2023-10-08T02:01:43;97427.63;;;16.13;65.88
73024;BME280;72676;47.526;8.538;2023-10-08T02:04:09;97416.50;;;16.10;65.65
73024;BME280;72676;47.526;8.538;2023-10-08T02:06:39;97424.28;;;16.11;65.49
73024;BME280;72676;47.526;8.538;2023-10-08T02:09:08;97420.38;;;16.15;65.03
73024;BME280;72676;47.526;8.538;2023-10-08T02:11:47;97421.75;;;16.19;64.75
73024;BME280;72676;47.526;8.538;2023-10-08T02:14:17;97422.06;;;16.16;64.67
73024;BME280;72676;47.526;8.538;2023-10-08T02:16:45;97414.69;;;16.10;64.62
73024;BME280;72676;47.526;8.538;2023-10-08T02:19:11;97417.34;;;16.10;64.62
73024;BME280;72676;47.526;8.538;2023-10-08T02:21:40;97411.94;;;16.02;65.22
73024;BME280;72676;47.526;8.538;2023-10-08T02:24:07;97416.53;;;15.91;65.87
73024;BME280;72676;47.526;8.538;2023-10-08T02:26:34;97410.94;;;16.03;65.14
73024;BME280;72676;47.526;8.538;2023-10-08T02:29:01;97415.56;;;16.01;65.43
73024;BME280;72676;47.526;8.538;2023-10-08T02:31:28;97418.69;;;15.78;66.12
73024;BME280;72676;47.526;8.538;2023-10-08T02:33:54;97415.47;;;15.84;65.70
73024;BME280;72676;47.526;8.538;2023-10-08T02:36:21;97419.91;;;15.83;65.68
73024;BME280;72676;47.526;8.538;2023-10-08T02:38:48;97422.44;;;15.75;66.19
73024;BME280;72676;47.526;8.538;2023-10-08T02:41:16;97432.00;;;15.76;65.86
73024;BME280;72676;47.526;8.538;2023-10-08T02:43:43;97425.38;;;15.72;66.12
73024;BME280;72676;47.526;8.538;2023-10-08T02:46:11;97432.88;;;15.67;66.55
73024;BME280;72676;47.526;8.538;2023-10-08T02:48:41;97420.75;;;15.65;66.68
73024;BME280;72676;47.526;8.538;2023-10-08T02:51:08;97426.75;;;15.67;66.57
73024;BME280;72676;47.526;8.538;2023-10-08T02:53:41;97427.44;;;15.69;66.09
73024;BME280;72676;47.526;8.538;2023-10-08T02:56:09;97426.59;;;15.68;66.12
73024;BME280;72676;47.526;8.538;2023-10-08T02:58:42;97428.41;;;15.58;66.31
73024;BME280;72676;47.526;8.538;2023-10-08T03:01:13;97431.75;;;15.60;66.02
73024;BME280;72676;47.526;8.538;2023-10-08T03:03:41;97425.53;;;15.61;66.19
73024;BME280;72676;47.526;8.538;2023-10-08T03:06:09;97429.81;;;15.62;65.51
73024;BME280;72676;47.526;8.538;2023-10-08T03:08:41;97424.41;;;15.54;65.72
73024;BME280;72676;47.526;8.538;2023-10-08T03:11:09;97421.88;;;15.72;64.95
73024;BME280;72676;47.526;8.538;2023-10-08T03:13:46;97418.13;;;15.65;65.07
73024;BME280;72676;47.526;8.538;2023-10-08T03:16:19;97416.63;;;15.53;65.74
73024;BME280;72676;47.526;8.538;2023-10-08T03:18:53;97410.53;;;15.52;65.47
73024;BME280;72676;47.526;8.538;2023-10-08T03:21:21;97411.88;;;15.47;65.98
73024;BME280;72676;47.526;8.538;2023-10-08T03:23:59;97413.16;;;15.52;65.64
73024;BME280;72676;47.526;8.538;2023-10-08T03:26:25;97404.25;;;15.53;65.59
73024;BME280;72676;47.526;8.538;2023-10-08T03:29:03;97411.34;;;15.43;65.89
73024;BME280;72676;47.526;8.538;2023-10-08T03:31:42;97412.72;;;15.47;65.66
73024;BME280;72676;47.526;8.538;2023-10-08T03:34:15;97418.00;;;15.47;65.75
73024;BME280;72676;47.526;8.538;2023-10-08T03:36:46;97419.13;;;15.45;65.62
73024;BME280;72676;47.526;8.538;2023-10-08T03:39:14;97418.56;;;15.41;65.95
73024;BME280;72676;47.526;8.538;2023-10-08T03:41:41;97413.56;;;15.38;66.03
73024;BME280;72676;47.526;8.538;2023-10-08T03:44:08;97414.97;;;15.33;66.33
73024;BME280;72676;47.526;8.538;2023-10-08T03:46:43;97412.19;;;15.34;66.03
73024;BME280;72676;47.526;8.538;2023-10-08T03:49:13;97415.81;;;15.33;65.99
73024;BME280;72676;47.526;8.538;2023-10-08T03:51:49;97419.66;;;15.29;66.31
73024;BME280;72676;47.526;8.538;2023-10-08T03:54:20;97418.84;;;15.29;66.13
73024;BME280;72676;47.526;8.538;2023-10-08T03:56:56;97409.38;;;15.17;66.67
73024;BME280;72676;47.526;8.538;2023-10-08T03:59:23;97416.88;;;15.21;66.96
73024;BME280;72676;47.526;8.538;2023-10-08T04:01:57;97417.44;;;15.25;66.67
73024;BME280;72676;47.526;8.538;2023-10-08T04:04:25;97413.09;;;15.14;67.06
73024;BME280;72676;47.526;8.538;2023-10-08T04:07:19;97412.00;;;15.07;66.84
73024;BME280;72676;47.526;8.538;2023-10-08T04:09:51;97419.50;;;14.93;67.82
73024;BME280;72676;47.526;8.538;2023-10-08T04:12:31;97412.69;;;14.90;67.70
73024;BME280;72676;47.526;8.538;2023-10-08T04:15:01;97414.91;;;14.95;67.32
73024;BME280;72676;47.526;8.538;2023-10-08T04:17:35;97415.47;;;15.08;66.84
73024;BME280;72676;47.526;8.538;2023-10-08T04:20:11;97416.28;;;14.99;67.07
73024;BME280;72676;47.526;8.538;2023-10-08T04:22:57;97405.47;;;15.11;66.94
73024;BME280;72676;47.526;8.538;2023-10-08T04:25:29;97411.03;;;15.08;66.78
73024;BME280;72676;47.526;8.538;2023-10-08T04:27:57;97406.84;;;14.96;67.40
73024;BME280;72676;47.526;8.538;2023-10-08T04:30:36;97404.94;;;14.98;67.23
73024;BME280;72676;47.526;8.538;2023-10-08T04:33:04;97413.25;;;15.03;67.14
73024;BME280;72676;47.526;8.538;2023-10-08T04:35:39;97409.63;;;15.04;67.10
73024;BME280;72676;47.526;8.538;2023-10-08T04:38:16;97408.81;;;15.04;67.04
73024;BME280;72676;47.526;8.538;2023-10-08T04:40:48;97414.34;;;15.01;67.06
73024;BME280;72676;47.526;8.538;2023-10-08T04:43:22;97408.25;;;15.00;66.55
73024;BME280;72676;47.526;8.538;2023-10-08T04:45:52;97404.63;;;14.92;66.23
73024;BME280;72676;47.526;8.538;2023-10-08T04:48:19;97410.03;;;14.90;66.28
73024;BME280;72676;47.526;8.538;2023-10-08T04:50:51;97402.94;;;14.91;65.82
73024;BME280;72676;47.526;8.538;2023-10-08T04:56:01;97412.09;;;14.77;66.54
73024;BME280;72676;47.526;8.538;2023-10-08T04:58:40;97412.38;;;14.74;66.90
73024;BME280;72676;47.526;8.538;2023-10-08T05:01:08;97409.03;;;14.73;67.01
73024;BME280;72676;47.526;8.538;2023-10-08T05:06:33;97413.50;;;14.81;66.71
73024;BME280;72676;47.526;8.538;2023-10-08T05:09:07;97406.00;;;14.86;66.25
73024;BME280;72676;47.526;8.538;2023-10-08T05:11:39;97406.00;;;14.86;66.46
73024;BME280;72676;47.526;8.538;2023-10-08T05:14:24;97404.75;;;14.81;66.26
73024;BME280;72676;47.526;8.538;2023-10-08T05:17:08;97414.19;;;14.83;66.19
73024;BME280;72676;47.526;8.538;2023-10-08T05:19:46;97412.69;;;14.90;66.55
73024;BME280;72676;47.526;8.538;2023-10-08T05:22:25;97401.44;;;14.88;65.84
73024;BME280;72676;47.526;8.538;2023-10-08T05:24:58;97411.03;;;14.89;65.65
73024;BME280;72676;47.526;8.538;2023-10-08T05:27:44;97409.03;;;14.82;65.93
73024;BME280;72676;47.526;8.538;2023-10-08T05:30:15;97402.50;;;14.76;65.95
73024;BME280;72676;47.526;8.538;2023-10-08T05:32:43;97411.00;;;14.71;66.13
73024;BME280;72676;47.526;8.538;2023-10-08T05:35:30;97410.00;;;14.72;66.48
73024;BME280;72676;47.526;8.538;2023-10-08T05:38:04;97407.63;;;14.68;66.13
73024;BME280;72676;47.526;8.538;2023-10-08T05:40:43;97411.25;;;14.68;66.52
73024;BME280;72676;47.526;8.538;2023-10-08T05:43:29;97413.06;;;14.76;65.95
73024;BME280;72676;47.526;8.538;2023-10-08T05:46:12;97412.66;;;14.72;66.41
73024;BME280;72676;47.526;8.538;2023-10-08T05:48:49;97417.09;;;14.71;66.49
73024;BME280;72676;47.526;8.538;2023-10-08T05:51:30;97416.50;;;14.68;66.77
73024;BME280;72676;47.526;8.538;2023-10-08T05:54:17;97412.38;;;14.65;66.72
73024;BME280;72676;47.526;8.538;2023-10-08T05:56:53;97419.66;;;14.52;67.26
73024;BME280;72676;47.526;8.538;2023-10-08T05:59:36;97425.34;;;14.48;67.10
73024;BME280;72676;47.526;8.538;2023-10-08T06:02:26;97424.53;;;14.47;66.92
73024;BME280;72676;47.526;8.538;2023-10-08T06:04:57;97431.72;;;14.45;66.90
73024;BME280;72676;47.526;8.538;2023-10-08T06:10:19;97428.66;;;14.50;66.97
73024;BME280;72676;47.526;8.538;2023-10-08T06:13:10;97438.97;;;14.53;66.88
73024;BME280;72676;47.526;8.538;2023-10-08T06:18:23;97445.09;;;14.63;66.59
73024;BME280;72676;47.526;8.538;2023-10-08T06:20:57;97441.44;;;14.54;66.94
73024;BME280;72676;47.526;8.538;2023-10-08T06:23:28;97429.81;;;14.57;66.71
73024;BME280;72676;47.526;8.538;2023-10-08T06:26:02;97435.19;;;14.46;67.10
73024;BME280;72676;47.526;8.538;2023-10-08T06:28:42;97439.50;;;14.47;67.32
73024;BME280;72676;47.526;8.538;2023-10-08T06:31:08;97438.13;;;14.52;67.00
73024;BME280;72676;47.526;8.538;2023-10-08T06:33:40;97447.56;;;14.55;66.99
73024;BME280;72676;47.526;8.538;2023-10-08T06:36:08;97450.22;;;14.55;67.55
73024;BME280;72676;47.526;8.538;2023-10-08T06:38:38;97460.38;;;14.68;66.80
73024;BME280;72676;47.526;8.538;2023-10-08T06:41:11;97460.53;;;14.67;66.81
73024;BME280;72676;47.526;8.538;2023-10-08T06:44:00;97454.28;;;14.77;66.68
73024;BME280;72676;47.526;8.538;2023-10-08T06:46:30;97459.59;;;14.87;66.34
73024;BME280;72676;47.526;8.538;2023-10-08T06:49:02;97461.81;;;14.82;66.21
73024;BME280;72676;47.526;8.538;2023-10-08T06:51:31;97469.88;;;14.80;66.57
73024;BME280;72676;47.526;8.538;2023-10-08T06:53:59;97467.06;;;14.82;66.64
73024;BME280;72676;47.526;8.538;2023-10-08T06:56:29;97465.63;;;14.98;66.60
73024;BME280;72676;47.526;8.538;2023-10-08T06:58:58;97465.72;;;14.97;66.39
73024;BME280;72676;47.526;8.538;2023-10-08T07:01:25;97463.66;;;15.00;66.40
73024;BME280;72676;47.526;8.538;2023-10-08T07:03:52;97472.00;;;15.05;66.24
73024;BME280;72676;47.526;8.538;2023-10-08T07:06:23;97469.66;;;15.12;66.23
73024;BME280;72676;47.526;8.538;2023-10-08T07:08:52;97466.88;;;15.13;66.34
73024;BME280;72676;47.526;8.538;2023-10-08T07:11:22;97467.47;;;15.26;66.00
73024;BME280;72676;47.526;8.538;2023-10-08T07:13:50;97472.75;;;15.26;65.86
73024;BME280;72676;47.526;8.538;2023-10-08T07:16:17;97473.03;;;15.33;66.07
73024;BME280;72676;47.526;8.538;2023-10-08T07:18:44;97473.19;;;15.31;66.14
73024;BME280;72676;47.526;8.538;2023-10-08T07:21:21;97473.31;;;15.39;65.89
73024;BME280;72676;47.526;8.538;2023-10-08T07:24:12;97480.00;;;15.43;66.00
73024;BME280;72676;47.526;8.538;2023-10-08T07:26:43;97475.56;;;15.53;65.97
73024;BME280;72676;47.526;8.538;2023-10-08T07:29:14;97478.34;;;15.61;65.80
73024;BME280;72676;47.526;8.538;2023-10-08T07:31:44;97481.94;;;15.60;65.70
73024;BME280;72676;47.526;8.538;2023-10-08T07:34:19;97480.00;;;15.72;65.42
73024;BME280;72676;47.526;8.538;2023-10-08T07:36:54;97479.72;;;15.84;64.92
73024;BME280;72676;47.526;8.538;2023-10-08T07:39:22;97483.16;;;15.94;64.77
73024;BME280;72676;47.526;8.538;2023-10-08T07:42:03;97489.44;;;16.03;64.99
73024;BME280;72676;47.526;8.538;2023-10-08T07:44:32;97491.34;;;16.10;64.81
73024;BME280;72676;47.526;8.538;2023-10-08T07:47:02;97481.88;;;16.17;64.78
73024;BME280;72676;47.526;8.538;2023-10-08T07:49:37;97480.31;;;16.24;65.04
73024;BME280;72676;47.526;8.538;2023-10-08T07:52:03;97485.47;;;16.26;64.71
73024;BME280;72676;47.526;8.538;2023-10-08T07:54:31;97485.75;;;16.23;64.77
73024;BME280;72676;47.526;8.538;2023-10-08T07:57:03;97492.16;;;16.30;64.63
73024;BME280;72676;47.526;8.538;2023-10-08T07:59:39;97489.66;;;16.28;65.25
73024;BME280;72676;47.526;8.538;2023-10-08T08:02:09;97498.84;;;16.43;64.88
73024;BME280;72676;47.526;8.538;2023-10-08T08:04:40;97496.00;;;16.54;64.84
73024;BME280;72676;47.526;8.538;2023-10-08T08:07:07;97500.59;;;16.52;64.40
73024;BME280;72676;47.526;8.538;2023-10-08T08:09:34;97493.97;;;16.39;64.76
73024;BME280;72676;47.526;8.538;2023-10-08T08:12:05;97495.09;;;16.36;64.91
73024;BME280;72676;47.526;8.538;2023-10-08T08:14:37;97497.56;;;16.28;64.99
73024;BME280;72676;47.526;8.538;2023-10-08T08:17:07;97495.75;;;16.48;64.59
73024;BME280;72676;47.526;8.538;2023-10-08T08:19:41;97502.38;;;16.61;64.15
73024;BME280;72676;47.526;8.538;2023-10-08T08:22:09;97497.78;;;16.63;64.39
73024;BME280;72676;47.526;8.538;2023-10-08T08:24:41;97499.88;;;16.60;64.29
73024;BME280;72676;47.526;8.538;2023-10-08T08:27:11;97508.47;;;16.71;63.88
73024;BME280;72676;47.526;8.538;2023-10-08T08:29:53;97504.50;;;16.85;64.07
73024;BME280;72676;47.526;8.538;2023-10-08T08:32:22;97503.19;;;16.71;64.90
73024;BME280;72676;47.526;8.538;2023-10-08T08:34:50;97502.25;;;16.90;64.43
73024;BME280;72676;47.526;8.538;2023-10-08T08:37:17;97500.16;;;17.11;63.80
73024;BME280;72676;47.526;8.538;2023-10-08T08:39:44;97503.31;;;17.24;63.47
73024;BME280;72676;47.526;8.538;2023-10-08T08:42:12;97501.22;;;17.27;63.56
73024;BME280;72676;47.526;8.538;2023-10-08T08:44:42;97505.88;;;17.33;62.86
73024;BME280;72676;47.526;8.538;2023-10-08T08:47:13;97507.78;;;16.96;63.91
73024;BME280;72676;47.526;8.538;2023-10-08T08:49:50;97500.72;;;16.87;64.52
73024;BME280;72676;47.526;8.538;2023-10-08T08:52:21;97501.22;;;17.27;63.63
73024;BME280;72676;47.526;8.538;2023-10-08T08:54:48;97499.91;;;17.14;63.08
73024;BME280;72676;47.526;8.538;2023-10-08T08:57:15;97500.75;;;17.32;63.07
73024;BME280;72676;47.526;8.538;2023-10-08T08:59:52;97500.13;;;17.47;62.81
73024;BME280;72676;47.526;8.538;2023-10-08T09:02:19;97499.06;;;17.58;62.80
73024;BME280;72676;47.526;8.538;2023-10-08T09:04:48;97499.28;;;17.64;62.41
73024;BME280;72676;47.526;8.538;2023-10-08T09:07:19;97493.38;;;17.70;62.45
73024;BME280;72676;47.526;8.538;2023-10-08T09:09:47;97492.84;;;17.84;62.20
73024;BME280;72676;47.526;8.538;2023-10-08T09:12:16;97494.31;;;18.04;61.62
73024;BME280;72676;47.526;8.538;2023-10-08T09:14:43;97496.63;;;17.99;61.33
73024;BME280;72676;47.526;8.538;2023-10-08T09:17:11;97486.06;;;18.07;61.65
73024;BME280;72676;47.526;8.538;2023-10-08T09:19:38;97493.53;;;18.11;61.64
73024;BME280;72676;47.526;8.538;2023-10-08T09:22:11;97498.09;;;18.19;61.57
73024;BME280;72676;47.526;8.538;2023-10-08T09:24:40;97490.59;;;18.32;60.93
73024;BME280;72676;47.526;8.538;2023-10-08T09:27:10;97489.66;;;18.41;61.00
73024;BME280;72676;47.526;8.538;2023-10-08T09:29:46;97486.44;;;18.55;60.30
73024;BME280;72676;47.526;8.538;2023-10-08T09:32:12;97485.09;;;18.59;59.92
73024;BME280;72676;47.526;8.538;2023-10-08T09:35:05;97488.09;;;18.56;59.91
73024;BME280;72676;47.526;8.538;2023-10-08T09:37:33;97486.81;;;18.68;59.28
73024;BME280;72676;47.526;8.538;2023-10-08T09:40:03;97480.75;;;18.83;59.49
73024;BME280;72676;47.526;8.538;2023-10-08T09:42:37;97483.44;;;18.91;58.37
73024;BME280;72676;47.526;8.538;2023-10-08T09:45:07;97475.91;;;19.12;58.62
73024;BME280;72676;47.526;8.538;2023-10-08T09:47:38;97478.78;;;19.27;58.36
73024;BME280;72676;47.526;8.538;2023-10-08T09:50:09;97478.81;;;19.43;57.81
73024;BME280;72676;47.526;8.538;2023-10-08T09:52:49;97472.72;;;19.58;57.52
73024;BME280;72676;47.526;8.538;2023-10-08T09:55:18;97475.19;;;19.60;56.64
73024;BME280;72676;47.526;8.538;2023-10-08T09:57:46;97476.19;;;19.67;56.86
73024;BME280;72676;47.526;8.538;2023-10-08T10:00:14;97480.53;;;19.76;56.16
73024;BME280;72676;47.526;8.538;2023-10-08T10:02:42;97479.19;;;19.88;56.23
73024;BME280;72676;47.526;8.538;2023-10-08T10:05:11;97477.88;;;20.00;55.74
73024;BME280;72676;47.526;8.538;2023-10-08T10:07:40;97488.03;;;19.96;55.30
73024;BME280;72676;47.526;8.538;2023-10-08T10:10:27;97493.53;;;20.11;55.30
73024;BME280;72676;47.526;8.538;2023-10-08T10:13:02;97490.03;;;20.34;54.96
73024;BME280;72676;47.526;8.538;2023-10-08T10:15:32;97492.47;;;20.60;54.05
73024;BME280;72676;47.526;8.538;2023-10-08T10:18:14;97487.44;;;20.73;53.78
73024;BME280;72676;47.526;8.538;2023-10-08T10:20:45;97483.75;;;20.90;52.91
73024;BME280;72676;47.526;8.538;2023-10-08T10:23:38;97471.13;;;20.76;52.80
73024;BME280;72676;47.526;8.538;2023-10-08T10:26:27;97475.78;;;20.82;52.66
73024;BME280;72676;47.526;8.538;2023-10-08T10:31:33;97460.53;;;21.06;51.97
73024;BME280;72676;47.526;8.538;2023-10-08T10:34:09;97470.94;;;21.23;52.08
73024;BME280;72676;47.526;8.538;2023-10-08T10:36:36;97476.19;;;21.39;51.87
73024;BME280;72676;47.526;8.538;2023-10-08T10:39:03;97465.53;;;21.62;50.94
73024;BME280;72676;47.526;8.538;2023-10-08T10:41:44;97472.06;;;21.59;50.76
73024;BME280;72676;47.526;8.538;2023-10-08T10:44:12;97475.53;;;21.68;50.23
73024;BME280;72676;47.526;8.538;2023-10-08T10:46:43;97462.59;;;21.79;50.22
73024;BME280;72676;47.526;8.538;2023-10-08T10:49:20;97464.56;;;21.85;50.30
73024;BME280;72676;47.526;8.538;2023-10-08T10:51:58;97459.50;;;21.90;49.62
73024;BME280;72676;47.526;8.538;2023-10-08T10:54:24;97464.44;;;22.01;47.82
73024;BME280;72676;47.526;8.538;2023-10-08T10:56:52;97461.78;;;22.01;48.65
73024;BME280;72676;47.526;8.538;2023-10-08T10:59:34;97463.69;;;22.07;49.59
73024;BME280;72676;47.526;8.538;2023-10-08T11:02:08;97468.41;;;22.05;47.20
73024;BME280;72676;47.526;8.538;2023-10-08T11:04:35;97461.19;;;22.28;47.05
73024;BME280;72676;47.526;8.538;2023-10-08T11:07:17;97464.34;;;22.32;46.56
73024;BME280;72676;47.526;8.538;2023-10-08T11:09:47;97459.63;;;22.34;46.63
73024;BME280;72676;47.526;8.538;2023-10-08T11:12:14;97458.31;;;22.30;45.91
73024;BME280;72676;47.526;8.538;2023-10-08T11:14:46;97451.59;;;22.56;45.86
73024;BME280;72676;47.526;8.538;2023-10-08T11:17:22;97449.25;;;22.68;46.11
73024;BME280;72676;47.526;8.538;2023-10-08T11:19:50;97441.69;;;22.86;45.59
73024;BME280;72676;47.526;8.538;2023-10-08T11:22:17;97449.84;;;22.92;44.77
73024;BME280;72676;47.526;8.538;2023-10-08T11:24:45;97442.59;;;23.07;45.51
73024;BME280;72676;47.526;8.538;2023-10-08T11:27:18;97447.88;;;23.15;44.10
73024;BME280;72676;47.526;8.538;2023-10-08T11:30:02;97440.28;;;23.33;44.36
73024;BME280;72676;47.526;8.538;2023-10-08T11:32:29;97437.25;;;23.57;43.76
73024;BME280;72676;47.526;8.538;2023-10-08T11:34:59;97437.63;;;23.54;42.72
73024;BME280;72676;47.526;8.538;2023-10-08T11:37:27;97441.19;;;23.61;43.23
73024;BME280;72676;47.526;8.538;2023-10-08T11:39:54;97438.84;;;23.73;42.43
73024;BME280;72676;47.526;8.538;2023-10-08T11:42:25;97436.22;;;23.79;42.25
73024;BME280;72676;47.526;8.538;2023-10-08T11:45:07;97433.56;;;24.00;41.80
73024;BME280;72676;47.526;8.538;2023-10-08T11:47:51;97425.53;;;24.00;41.82
73024;BME280;72676;47.526;8.538;2023-10-08T11:50:26;97424.91;;;23.98;41.94
73024;BME280;72676;47.526;8.538;2023-10-08T11:53:00;97423.88;;;23.99;41.86
73024;BME280;72676;47.526;8.538;2023-10-08T11:55:32;97409.06;;;24.24;41.16
73024;BME280;72676;47.526;8.538;2023-10-08T11:58:04;97413.69;;;24.37;40.90
73024;BME280;72676;47.526;8.538;2023-10-08T12:00:38;97415.91;;;24.33;41.18
73024;BME280;72676;47.526;8.538;2023-10-08T12:03:12;97400.22;;;24.57;41.17
73024;BME280;72676;47.526;8.538;2023-10-08T12:05:39;97397.41;;;24.65;41.50
73024;BME280;72676;47.526;8.538;2023-10-08T12:08:18;97399.03;;;24.60;40.48
73024;BME280;72676;47.526;8.538;2023-10-08T12:10:47;97395.50;;;24.59;40.29
73024;BME280;72676;47.526;8.538;2023-10-08T12:13:15;97395.81;;;24.77;40.04
73024;BME280;72676;47.526;8.538;2023-10-08T12:15:55;97396.03;;;24.76;41.18
73024;BME280;72676;47.526;8.538;2023-10-08T12:18:33;97388.19;;;25.21;40.36
73024;BME280;72676;47.526;8.538;2023-10-08T12:21:06;97383.50;;;25.43;39.24
73024;BME280;72676;47.526;8.538;2023-10-08T12:23:42;97388.28;;;25.80;39.08
73024;BME280;72676;47.526;8.538;2023-10-08T12:26:16;97385.03;;;26.04;38.46
73024;BME280;72676;47.526;8.538;2023-10-08T12:28:45;97390.59;;;26.28;37.79
73024;BME280;72676;47.526;8.538;2023-10-08T12:31:18;97379.41;;;26.38;37.43
73024;BME280;72676;47.526;8.538;2023-10-08T12:33:51;97378.56;;;26.70;37.40
73024;BME280;72676;47.526;8.538;2023-10-08T12:36:23;97375.38;;;26.92;36.30
73024;BME280;72676;47.526;8.538;2023-10-08T12:38:50;97370.31;;;26.58;37.17
73024;BME280;72676;47.526;8.538;2023-10-08T12:41:25;97374.13;;;26.95;36.55
73024;BME280;72676;47.526;8.538;2023-10-08T12:43:53;97360.59;;;27.08;36.03
73024;BME280;72676;47.526;8.538;2023-10-08T12:46:21;97366.47;;;27.36;35.57
73024;BME280;72676;47.526;8.538;2023-10-08T12:48:52;97370.50;;;27.58;35.46
73024;BME280;72676;47.526;8.538;2023-10-08T12:51:21;97372.09;;;27.34;36.00
73024;BME280;72676;47.526;8.538;2023-10-08T12:53:52;97365.97;;;27.21;37.13
73024;BME280;72676;47.526;8.538;2023-10-08T12:56:30;97368.94;;;27.44;36.96
73024;BME280;72676;47.526;8.538;2023-10-08T12:59:02;97363.56;;;27.75;35.26
73024;BME280;72676;47.526;8.538;2023-10-08T13:01:35;97366.94;;;27.94;34.31
73024;BME280;72676;47.526;8.538;2023-10-08T13:04:07;97366.28;;;28.23;34.30
73024;BME280;72676;47.526;8.538;2023-10-08T13:06:41;97365.34;;;28.36;34.07
73024;BME280;72676;47.526;8.538;2023-10-08T13:09:11;97362.91;;;28.70;33.60
73024;BME280;72676;47.526;8.538;2023-10-08T13:11:40;97363.19;;;28.80;33.13
73024;BME280;72676;47.526;8.538;2023-10-08T13:14:09;97356.88;;;28.93;33.28
73024;BME280;72676;47.526;8.538;2023-10-08T13:16:38;97353.16;;;29.23;32.96
73024;BME280;72676;47.526;8.538;2023-10-08T13:19:04;97351.09;;;29.48;32.93
73024;BME280;72676;47.526;8.538;2023-10-08T13:21:34;97347.72;;;29.82;32.33
73024;BME280;72676;47.526;8.538;2023-10-08T13:24:03;97350.66;;;29.92;31.14
73024;BME280;72676;47.526;8.538;2023-10-08T13:26:31;97337.34;;;30.09;31.90
73024;BME280;72676;47.526;8.538;2023-10-08T13:28:58;97341.34;;;30.18;31.78
73024;BME280;72676;47.526;8.538;2023-10-08T13:31:26;97333.91;;;30.36;30.73
73024;BME280;72676;47.526;8.538;2023-10-08T13:33:53;97339.09;;;30.38;30.09
73024;BME280;72676;47.526;8.538;2023-10-08T13:36:23;97336.13;;;30.51;30.22
73024;BME280;72676;47.526;8.538;2023-10-08T13:38:50;97331.91;;;30.55;29.30
73024;BME280;72676;47.526;8.538;2023-10-08T13:41:18;97330.63;;;30.34;29.97